Skip to main content.
Our real time weather data display below is updated continuously via our 24/7 live data feed.
 TIME   TEMPERATURE   WINDSPEED   DIRECTION   HUMIDITY   BAROMETER   RAINFALL 
16:50 27.0°C (80.6°F) 24.1 kmh (15.0 mph) E 74% 1016.9hPa (30.03 inHg) 0.0mm (0.00 in.)
15:50 27.0°C (80.6 °F) 24.1 kmh (15.0 mph) E 74% 1016.9hPa (30.03 inHg) 0.0mm (0.00 in.)
14:50 27.0°C (80.6 °F) 27.8 kmh (17.3 mph) E 74% 1016.9hPa (30.03 inHg) 0.0mm (0.00 in.)
13:50 27.0°C (80.6 °F) 24.1 kmh (15.0 mph) E 74% 1017.9hPa (30.06 inHg) 0.0mm (0.00 in.)
12:50 27.0°C (80.6 °F) 29.6 kmh (18.4 mph) E 74% 1017.9hPa (30.06 inHg) 0.0mm (0.00 in.)
11:50 27.0°C (80.6 °F) 29.6 kmh (18.4 mph) E 74% 1017.9hPa (30.06 inHg) 0.0mm (0.00 in.)
10:50 27.0°C (80.6 °F) 27.8 kmh (17.3 mph) E 74% 1017.9hPa (30.06 inHg) 0.0mm (0.00 in.)
9:50 26.0°C (78.8 °F) 20.4 kmh (12.7 mph) E 73% 1017.9hPa (30.06 inHg) 0.0mm (0.00 in.)
8:50 25.0°C (77.0 °F) 22.2 kmh (13.8 mph) E 83% 1016.9hPa (30.03 inHg) 0.0mm (0.00 in.)
7:50 25.0°C (77.0 °F) 24.1 kmh (15.0 mph) E 83% 1016.9hPa (30.03 inHg) 0.0mm (0.00 in.)
6:50 25.0°C (77.0 °F) 20.4 kmh (12.7 mph) E 88% 1016.9hPa (30.03 inHg) 0.0mm (0.00 in.)
5:50 25.0°C (77.0 °F) 14.8 kmh (9.2 mph) ENE 88% 1019.0hPa (30.09 inHg) 0.0mm (0.00 in.)
4:50 25.0°C (77.0 °F) 20.4 kmh (12.7 mph) ENE 94% 1017.9hPa (30.06 inHg) 0.0mm (0.00 in.)
3:50 25.0°C (77.0 °F) 13.0 kmh (8.1 mph) E 88% 1017.9hPa (30.06 inHg) 0.0mm (0.00 in.)
2:50 25.0°C (77.0 °F) 16.7 kmh (10.4 mph) ENE 88% 1017.9hPa (30.06 inHg) 0.0mm (0.00 in.)
1:50 25.0°C (77.0 °F) 14.8 kmh (9.2 mph) ESE 88% 1017.9hPa (30.06 inHg) 0.0mm (0.00 in.)
0:50 25.0°C (77.0 °F) 18.5 kmh (11.5 mph) ENE 88% 1017.9hPa (30.06 inHg) 0.0mm (0.00 in.)
23:49 25.0°C (77.0 °F) 20.4 kmh (12.7 mph) E 88% 1017.9hPa (30.06 inHg) 0.0mm (0.00 in.)
22:49 25.0°C (77.0 °F) 24.1 kmh (15.0 mph) ENE 94% 1017.9hPa (30.06 inHg) 0.0mm (0.00 in.)
21:49 26.0°C (78.8 °F) 18.5 kmh (11.5 mph) ENE 83% 1017.9hPa (30.06 inHg) 0.0mm (0.00 in.)
20:49 26.0°C (78.8 °F) 18.5 kmh (11.5 mph) ENE 83% 1016.9hPa (30.03 inHg) 0.0mm (0.00 in.)
19:49 26.0°C (78.8 °F) 18.5 kmh (11.5 mph) ENE 83% 1016.9hPa (30.03 inHg) 0.0mm (0.00 in.)
18:49 26.0°C (78.8 °F) 22.2 kmh (13.8 mph) E 83% 1016.9hPa (30.03 inHg) 0.0mm (0.00 in.)
17:49 27.0°C (80.6 °F) 11.1 kmh (6.9 mph) E 74% 1017.9hPa (30.06 inHg) 0.0mm (0.00 in.)